createdAt,value
2023-05-05T00:00:12.000Z,8.52
2023-05-05T00:01:10.000Z,8.41
2023-05-05T00:02:10.000Z,8.55
2023-05-05T00:03:09.000Z,8.54
2023-05-05T00:04:09.000Z,8.55
2023-05-05T00:05:10.000Z,8.43
2023-05-05T00:06:09.000Z,8.37
2023-05-05T00:07:09.000Z,8.39
2023-05-05T00:08:10.000Z,8.40
2023-05-05T00:09:09.000Z,8.61
2023-05-05T00:10:09.000Z,8.61
2023-05-05T00:11:10.000Z,8.55
2023-05-05T00:12:09.000Z,8.57
2023-05-05T00:13:10.000Z,8.65
2023-05-05T00:14:09.000Z,8.64
2023-05-05T00:15:09.000Z,8.61
2023-05-05T00:16:09.000Z,8.55
2023-05-05T00:17:09.000Z,8.39
2023-05-05T00:18:11.000Z,8.61
2023-05-05T00:19:10.000Z,8.53
2023-05-05T00:20:11.000Z,8.44
2023-05-05T00:21:10.000Z,8.51
2023-05-05T00:22:10.000Z,8.58
2023-05-05T00:23:10.000Z,8.65
2023-05-05T00:24:10.000Z,8.49
2023-05-05T00:25:10.000Z,8.55
2023-05-05T00:26:11.000Z,8.64
2023-05-05T00:27:10.000Z,8.63
2023-05-05T00:28:11.000Z,8.62
2023-05-05T00:29:10.000Z,8.64
2023-05-05T00:30:10.000Z,8.69
2023-05-05T00:31:10.000Z,8.68
2023-05-05T00:32:10.000Z,8.62
2023-05-05T00:33:11.000Z,8.52
2023-05-05T00:34:10.000Z,8.53
2023-05-05T00:35:10.000Z,8.47
2023-05-05T00:36:10.000Z,8.49
2023-05-05T00:37:10.000Z,8.50
2023-05-05T00:38:10.000Z,8.57
2023-05-05T00:39:10.000Z,8.60
2023-05-05T00:40:11.000Z,8.61
2023-05-05T00:41:10.000Z,8.67
2023-05-05T00:42:10.000Z,8.67
2023-05-05T00:43:11.000Z,8.65
2023-05-05T00:44:10.000Z,8.56
2023-05-05T00:45:12.000Z,8.63
2023-05-05T00:46:22.000Z,8.63
2023-05-05T00:47:12.000Z,8.58
2023-05-05T00:48:10.000Z,8.63
2023-05-05T00:49:11.000Z,8.65
2023-05-05T00:50:20.000Z,8.58
2023-05-05T00:51:12.000Z,8.59
2023-05-05T00:52:10.000Z,8.62
2023-05-05T00:53:10.000Z,8.55
2023-05-05T00:54:10.000Z,8.49
2023-05-05T00:55:10.000Z,8.52
2023-05-05T00:56:15.000Z,8.61
2023-05-05T00:57:10.000Z,8.59
2023-05-05T00:58:10.000Z,8.64
2023-05-05T00:59:10.000Z,8.59
2023-05-05T01:00:11.000Z,8.64
2023-05-05T01:01:10.000Z,8.61
2023-05-05T01:02:10.000Z,8.62
2023-05-05T01:03:13.000Z,8.57
2023-05-05T01:04:10.000Z,8.71
2023-05-05T01:05:12.000Z,8.68
2023-05-05T01:06:24.000Z,8.59
2023-05-05T01:07:20.000Z,8.51
2023-05-05T01:08:27.000Z,8.67
2023-05-05T01:09:22.000Z,8.62
2023-05-05T01:10:20.000Z,8.72
2023-05-05T01:11:17.000Z,8.72
2023-05-05T01:12:32.000Z,8.74
2023-05-05T01:13:20.000Z,8.74
2023-05-05T01:14:17.000Z,8.71
2023-05-05T01:15:20.000Z,8.74
2023-05-05T01:16:30.000Z,8.76
2023-05-05T01:17:27.000Z,8.68
2023-05-05T01:18:18.000Z,8.72
2023-05-05T01:19:32.000Z,8.72
2023-05-05T01:20:21.000Z,8.71
2023-05-05T01:21:43.000Z,8.73
2023-05-05T01:22:13.000Z,8.62
2023-05-05T01:23:23.000Z,8.70
2023-05-05T01:24:20.000Z,8.74
2023-05-05T01:25:20.000Z,8.76
2023-05-05T01:26:20.000Z,8.79
2023-05-05T01:27:33.000Z,8.82
2023-05-05T01:28:32.000Z,8.81
2023-05-05T01:29:33.000Z,8.81
2023-05-05T01:30:33.000Z,8.82
2023-05-05T01:31:19.000Z,8.81
2023-05-05T01:32:13.000Z,8.79
2023-05-05T01:33:18.000Z,8.86
2023-05-05T01:34:13.000Z,8.70
2023-05-05T01:35:19.000Z,8.85
2023-05-05T01:36:14.000Z,8.85
2023-05-05T01:37:17.000Z,8.87
2023-05-05T01:38:14.000Z,8.88
2023-05-05T01:39:14.000Z,8.90
2023-05-05T01:40:13.000Z,8.88
2023-05-05T01:41:17.000Z,8.87
2023-05-05T01:42:15.000Z,8.87
2023-05-05T01:43:13.000Z,8.87
2023-05-05T01:44:13.000Z,8.68
2023-05-05T01:45:12.000Z,8.87
2023-05-05T01:46:12.000Z,8.75
2023-05-05T01:47:14.000Z,8.86
2023-05-05T01:48:15.000Z,8.81
2023-05-05T01:49:11.000Z,8.87
2023-05-05T01:50:11.000Z,8.80
2023-05-05T01:51:11.000Z,8.82
2023-05-05T01:52:11.000Z,8.78
2023-05-05T01:53:11.000Z,8.85
2023-05-05T01:54:12.000Z,8.75
2023-05-05T01:55:13.000Z,8.92
2023-05-05T01:56:11.000Z,8.87
2023-05-05T01:57:12.000Z,8.85
2023-05-05T01:58:11.000Z,8.83
2023-05-05T01:59:12.000Z,8.83
2023-05-05T02:00:12.000Z,8.90
2023-05-05T02:01:12.000Z,8.86
2023-05-05T02:02:13.000Z,8.87
2023-05-05T02:03:13.000Z,8.75
2023-05-05T02:04:11.000Z,8.89
2023-05-05T02:05:12.000Z,8.84
2023-05-05T02:06:11.000Z,8.85
2023-05-05T02:07:11.000Z,8.86
2023-05-05T02:08:11.000Z,8.71
2023-05-05T02:09:12.000Z,8.82
2023-05-05T02:10:12.000Z,8.74
2023-05-05T02:11:11.000Z,8.70
2023-05-05T02:12:11.000Z,8.67
2023-05-05T02:13:12.000Z,8.71
2023-05-05T02:14:11.000Z,8.83
2023-05-05T02:15:12.000Z,8.72
2023-05-05T02:16:12.000Z,8.65
2023-05-05T02:17:13.000Z,8.58
2023-05-05T02:18:11.000Z,8.55
2023-05-05T02:19:12.000Z,8.80
2023-05-05T02:20:12.000Z,8.73
2023-05-05T02:21:10.000Z,8.66
2023-05-05T02:22:10.000Z,8.65
2023-05-05T02:23:09.000Z,8.70
2023-05-05T02:24:10.000Z,8.83
2023-05-05T02:25:10.000Z,8.71
2023-05-05T02:26:13.000Z,8.68
2023-05-05T02:27:11.000Z,8.77
2023-05-05T02:28:18.000Z,8.73
2023-05-05T02:29:16.000Z,8.70
2023-05-05T02:30:13.000Z,8.77
2023-05-05T02:31:11.000Z,8.75
2023-05-05T02:32:16.000Z,8.94
2023-05-05T02:33:15.000Z,9.06
2023-05-05T02:34:14.000Z,8.89
2023-05-05T02:35:16.000Z,9.01
2023-05-05T02:36:14.000Z,8.93
2023-05-05T02:37:16.000Z,8.96
2023-05-05T02:38:15.000Z,8.96
2023-05-05T02:39:22.000Z,8.94
2023-05-05T02:40:13.000Z,8.80
2023-05-05T02:41:13.000Z,8.75
2023-05-05T02:42:16.000Z,8.74
2023-05-05T02:43:14.000Z,8.77
2023-05-05T02:44:11.000Z,8.75
2023-05-05T02:45:15.000Z,8.75
2023-05-05T02:46:09.000Z,8.73
2023-05-05T02:47:09.000Z,9.08
2023-05-05T02:48:11.000Z,9.18
2023-05-05T02:49:09.000Z,9.13
2023-05-05T02:50:09.000Z,9.04
2023-05-05T02:51:09.000Z,9.19
2023-05-05T02:52:10.000Z,9.21
2023-05-05T02:53:10.000Z,9.21
2023-05-05T02:54:10.000Z,9.12
2023-05-05T02:55:10.000Z,9.03
2023-05-05T02:56:30.000Z,8.96
2023-05-05T02:57:16.000Z,8.94
2023-05-05T02:58:20.000Z,9.26
2023-05-05T02:59:24.000Z,9.44
2023-05-05T03:00:20.000Z,9.42
2023-05-05T03:01:41.000Z,9.37
2023-05-05T03:02:30.000Z,9.49
2023-05-05T03:03:22.000Z,9.54
2023-05-05T03:04:22.000Z,9.23
2023-05-05T03:05:20.000Z,9.15
2023-05-05T03:06:15.000Z,9.11
2023-05-05T03:07:33.000Z,9.08
2023-05-05T03:08:16.000Z,9.23
2023-05-05T03:09:21.000Z,9.21
2023-05-05T03:10:17.000Z,9.23
2023-05-05T03:11:24.000Z,9.49
2023-05-05T03:12:16.000Z,9.49
2023-05-05T03:13:12.000Z,9.50
2023-05-05T03:14:12.000Z,9.39
2023-05-05T03:15:11.000Z,9.71
2023-05-05T03:16:11.000Z,9.43
2023-05-05T03:17:11.000Z,9.30
2023-05-05T03:18:11.000Z,9.22
2023-05-05T03:19:12.000Z,9.21
2023-05-05T03:20:12.000Z,9.44
2023-05-05T03:21:10.000Z,9.62
2023-05-05T03:22:10.000Z,9.63
2023-05-05T03:23:11.000Z,9.88
2023-05-05T03:24:17.000Z,9.73
2023-05-05T03:25:09.000Z,9.80
2023-05-05T03:26:09.000Z,9.66
2023-05-05T03:27:09.000Z,9.55
2023-05-05T03:28:10.000Z,9.55
2023-05-05T03:29:10.000Z,9.68
2023-05-05T03:30:10.000Z,9.60
2023-05-05T03:31:10.000Z,9.76
2023-05-05T03:32:10.000Z,9.62
2023-05-05T03:33:10.000Z,9.64
2023-05-05T03:34:09.000Z,9.66
2023-05-05T03:35:10.000Z,9.51
2023-05-05T03:36:09.000Z,9.52
2023-05-05T03:37:09.000Z,9.48
2023-05-05T03:38:10.000Z,9.44
2023-05-05T03:39:10.000Z,9.43
2023-05-05T03:40:10.000Z,9.49
2023-05-05T03:41:09.000Z,9.49
2023-05-05T03:42:09.000Z,9.57
2023-05-05T03:43:10.000Z,9.64
2023-05-05T03:44:09.000Z,9.58
2023-05-05T03:45:09.000Z,9.63
2023-05-05T03:46:10.000Z,9.61
2023-05-05T03:47:10.000Z,9.52
2023-05-05T03:48:09.000Z,9.81
2023-05-05T03:49:10.000Z,9.65
2023-05-05T03:50:10.000Z,9.52
2023-05-05T03:51:11.000Z,9.57
2023-05-05T03:52:09.000Z,9.57
2023-05-05T03:53:09.000Z,9.68
2023-05-05T03:54:09.000Z,9.55
2023-05-05T03:55:09.000Z,9.46
2023-05-05T03:56:09.000Z,9.78
2023-05-05T03:57:09.000Z,9.76
2023-05-05T03:58:09.000Z,9.78
2023-05-05T03:59:09.000Z,10.04
2023-05-05T04:00:10.000Z,9.75
2023-05-05T04:01:09.000Z,9.84
2023-05-05T04:02:09.000Z,9.98
2023-05-05T04:03:09.000Z,9.66
2023-05-05T04:04:09.000Z,9.95
2023-05-05T04:05:09.000Z,9.74
2023-05-05T04:06:09.000Z,10.09
2023-05-05T04:07:09.000Z,9.91
2023-05-05T04:08:09.000Z,10.04
2023-05-05T04:09:10.000Z,9.88
2023-05-05T04:10:10.000Z,9.87
2023-05-05T04:11:09.000Z,10.10
2023-05-05T04:12:10.000Z,9.88
2023-05-05T04:13:09.000Z,9.81
2023-05-05T04:14:09.000Z,9.73
2023-05-05T04:15:09.000Z,9.73
2023-05-05T04:16:09.000Z,9.97
2023-05-05T04:17:09.000Z,9.92
2023-05-05T04:18:09.000Z,9.93
2023-05-05T04:19:11.000Z,9.98
2023-05-05T04:20:09.000Z,9.88
2023-05-05T04:21:09.000Z,9.91
2023-05-05T04:22:09.000Z,9.81
2023-05-05T04:23:09.000Z,10.10
2023-05-05T04:24:09.000Z,9.91
2023-05-05T04:25:10.000Z,10.29
2023-05-05T04:26:10.000Z,10.20
2023-05-05T04:27:09.000Z,10.21
2023-05-05T04:28:10.000Z,10.39
2023-05-05T04:29:10.000Z,10.12
2023-05-05T04:30:10.000Z,10.21
2023-05-05T04:31:10.000Z,10.39
2023-05-05T04:32:09.000Z,10.17
2023-05-05T04:33:10.000Z,10.18
2023-05-05T04:34:10.000Z,10.19
2023-05-05T04:35:10.000Z,10.03
2023-05-05T04:36:10.000Z,10.01
2023-05-05T04:37:09.000Z,10.11
2023-05-05T04:38:10.000Z,10.11
2023-05-05T04:39:10.000Z,10.70
2023-05-05T04:40:10.000Z,10.37
2023-05-05T04:41:10.000Z,10.22
2023-05-05T04:42:10.000Z,10.39
2023-05-05T04:43:09.000Z,10.29
2023-05-05T04:44:09.000Z,10.45
2023-05-05T04:45:10.000Z,10.33
2023-05-05T04:46:10.000Z,10.44
2023-05-05T04:47:09.000Z,10.47
2023-05-05T04:48:09.000Z,10.47
2023-05-05T04:49:10.000Z,10.57
2023-05-05T04:50:10.000Z,10.49
2023-05-05T04:51:11.000Z,10.88
2023-05-05T04:52:12.000Z,10.81
2023-05-05T04:53:10.000Z,10.90
2023-05-05T04:54:10.000Z,10.65
2023-05-05T04:55:10.000Z,10.77
2023-05-05T04:56:10.000Z,10.78
2023-05-05T04:57:10.000Z,10.63
2023-05-05T04:58:10.000Z,10.66
2023-05-05T04:59:10.000Z,10.90
2023-05-05T05:00:10.000Z,10.60
2023-05-05T05:01:10.000Z,10.82
2023-05-05T05:02:10.000Z,10.74
2023-05-05T05:03:10.000Z,11.03
2023-05-05T05:04:10.000Z,11.16
2023-05-05T05:05:10.000Z,10.87
2023-05-05T05:06:10.000Z,10.80
2023-05-05T05:07:10.000Z,10.69
2023-05-05T05:08:10.000Z,10.90
2023-05-05T05:09:10.000Z,10.74
2023-05-05T05:10:10.000Z,10.82
2023-05-05T05:11:10.000Z,10.94
2023-05-05T05:12:10.000Z,10.93
2023-05-05T05:13:10.000Z,10.91
2023-05-05T05:14:10.000Z,10.86
2023-05-05T05:15:11.000Z,10.87
2023-05-05T05:16:10.000Z,10.99
2023-05-05T05:17:10.000Z,11.16
2023-05-05T05:18:10.000Z,11.09
2023-05-05T05:19:10.000Z,11.08
2023-05-05T05:20:10.000Z,11.12
2023-05-05T05:21:10.000Z,10.97
2023-05-05T05:22:15.000Z,10.84
2023-05-05T05:23:10.000Z,10.83
2023-05-05T05:24:10.000Z,10.91
2023-05-05T05:25:10.000Z,10.92
2023-05-05T05:26:10.000Z,11.00
2023-05-05T05:27:10.000Z,10.84
2023-05-05T05:28:10.000Z,10.79
2023-05-05T05:29:10.000Z,10.81
2023-05-05T05:30:10.000Z,10.75
2023-05-05T05:31:10.000Z,10.72
2023-05-05T05:32:10.000Z,10.84
2023-05-05T05:33:10.000Z,10.87
2023-05-05T05:34:10.000Z,11.06
2023-05-05T05:35:10.000Z,10.93
2023-05-05T05:36:10.000Z,10.83
2023-05-05T05:37:10.000Z,10.86
2023-05-05T05:38:10.000Z,10.79
2023-05-05T05:39:10.000Z,10.88
2023-05-05T05:40:10.000Z,10.92
2023-05-05T05:41:10.000Z,11.29
2023-05-05T05:42:10.000Z,11.19
2023-05-05T05:43:10.000Z,11.11
2023-05-05T05:44:10.000Z,11.12
2023-05-05T05:45:10.000Z,11.30
2023-05-05T05:46:10.000Z,11.25
2023-05-05T05:47:10.000Z,11.22
2023-05-05T05:48:10.000Z,11.20
2023-05-05T05:49:10.000Z,11.22
2023-05-05T05:50:10.000Z,11.19
2023-05-05T05:51:10.000Z,11.43
2023-05-05T05:52:10.000Z,11.22
2023-05-05T05:53:10.000Z,11.31
2023-05-05T05:54:09.000Z,11.46
2023-05-05T05:55:10.000Z,11.32
2023-05-05T05:56:09.000Z,11.52
2023-05-05T05:57:10.000Z,11.61
2023-05-05T05:58:09.000Z,11.70
2023-05-05T05:59:10.000Z,11.50
2023-05-05T06:00:10.000Z,11.50
2023-05-05T06:01:10.000Z,11.44
2023-05-05T06:02:09.000Z,11.44
2023-05-05T06:03:10.000Z,11.72
2023-05-05T06:04:09.000Z,11.57
2023-05-05T06:05:11.000Z,11.46
2023-05-05T06:06:10.000Z,11.72
2023-05-05T06:07:10.000Z,11.68
2023-05-05T06:08:10.000Z,11.66
2023-05-05T06:09:09.000Z,11.70
2023-05-05T06:10:10.000Z,11.68
2023-05-05T06:11:09.000Z,11.88
2023-05-05T06:12:10.000Z,11.93
2023-05-05T06:13:09.000Z,12.00
2023-05-05T06:14:09.000Z,12.06
2023-05-05T06:15:09.000Z,11.93
2023-05-05T06:16:10.000Z,11.82
2023-05-05T06:17:09.000Z,11.87
2023-05-05T06:18:10.000Z,12.01
2023-05-05T06:19:09.000Z,12.03
2023-05-05T06:20:11.000Z,12.04
2023-05-05T06:21:10.000Z,12.05
2023-05-05T06:22:10.000Z,12.10
2023-05-05T06:23:10.000Z,12.14
2023-05-05T06:24:10.000Z,12.10
2023-05-05T06:25:10.000Z,12.12
2023-05-05T06:26:09.000Z,12.21
2023-05-05T06:27:09.000Z,12.22
2023-05-05T06:28:09.000Z,12.31
2023-05-05T06:29:09.000Z,12.21
2023-05-05T06:30:10.000Z,12.36
2023-05-05T06:31:11.000Z,12.38
2023-05-05T06:32:11.000Z,12.40
2023-05-05T06:33:09.000Z,12.43
2023-05-05T06:34:09.000Z,12.35
2023-05-05T06:35:10.000Z,12.45
2023-05-05T06:36:10.000Z,12.49
2023-05-05T06:37:09.000Z,12.59
2023-05-05T06:38:11.000Z,12.62
2023-05-05T06:39:10.000Z,12.59
2023-05-05T06:40:10.000Z,12.50
2023-05-05T06:41:10.000Z,12.77
2023-05-05T06:42:09.000Z,12.72
2023-05-05T06:43:09.000Z,12.72
2023-05-05T06:44:09.000Z,12.68
2023-05-05T06:45:10.000Z,12.71
2023-05-05T06:46:09.000Z,12.79
2023-05-05T06:47:09.000Z,12.70
2023-05-05T06:48:10.000Z,12.85
2023-05-05T06:49:09.000Z,12.96
2023-05-05T06:50:10.000Z,12.83
2023-05-05T06:51:09.000Z,12.91
2023-05-05T06:52:09.000Z,12.97
2023-05-05T06:53:09.000Z,12.99
2023-05-05T06:54:09.000Z,12.74
2023-05-05T06:55:10.000Z,12.85
2023-05-05T06:56:10.000Z,13.15
2023-05-05T06:57:09.000Z,12.93
2023-05-05T06:58:10.000Z,12.92
2023-05-05T06:59:10.000Z,12.96
2023-05-05T07:00:10.000Z,12.94
2023-05-05T07:01:09.000Z,12.99
2023-05-05T07:02:09.000Z,13.04
2023-05-05T07:03:10.000Z,13.13
2023-05-05T07:04:09.000Z,13.03
2023-05-05T07:05:10.000Z,13.22
2023-05-05T07:06:10.000Z,13.14
2023-05-05T07:07:09.000Z,13.18
2023-05-05T07:08:11.000Z,13.17
2023-05-05T07:09:10.000Z,13.19
2023-05-05T07:10:10.000Z,13.20
2023-05-05T07:11:10.000Z,13.16
2023-05-05T07:12:10.000Z,13.20
2023-05-05T07:13:09.000Z,13.34
2023-05-05T07:14:10.000Z,13.34
2023-05-05T07:15:10.000Z,13.42
2023-05-05T07:16:10.000Z,13.28
2023-05-05T07:17:10.000Z,13.41
2023-05-05T07:18:13.000Z,13.44
2023-05-05T07:19:09.000Z,13.53
2023-05-05T07:20:10.000Z,13.52
2023-05-05T07:21:10.000Z,13.55
2023-05-05T07:22:10.000Z,13.43
2023-05-05T07:23:10.000Z,13.34
2023-05-05T07:24:09.000Z,13.37
2023-05-05T07:25:11.000Z,13.36
2023-05-05T07:26:10.000Z,13.41
2023-05-05T07:27:10.000Z,13.52
2023-05-05T07:28:10.000Z,13.44
2023-05-05T07:29:09.000Z,13.56
2023-05-05T07:30:10.000Z,13.40
2023-05-05T07:31:09.000Z,13.57
2023-05-05T07:32:09.000Z,13.30
2023-05-05T07:33:09.000Z,13.42
2023-05-05T07:34:09.000Z,13.37
2023-05-05T07:35:10.000Z,13.46
2023-05-05T07:36:10.000Z,13.43
2023-05-05T07:37:09.000Z,13.38
2023-05-05T07:38:10.000Z,13.35
2023-05-05T07:39:13.000Z,13.37
2023-05-05T07:40:10.000Z,13.26
2023-05-05T07:41:11.000Z,13.33
2023-05-05T07:42:09.000Z,13.33
2023-05-05T07:43:10.000Z,13.24
2023-05-05T07:44:10.000Z,13.28
2023-05-05T07:45:09.000Z,13.34
2023-05-05T07:46:10.000Z,13.32
2023-05-05T07:47:09.000Z,13.28
2023-05-05T07:48:10.000Z,13.44
2023-05-05T07:49:09.000Z,13.35
2023-05-05T07:50:09.000Z,13.40
2023-05-05T07:51:09.000Z,13.55
2023-05-05T07:52:10.000Z,13.43
2023-05-05T07:53:09.000Z,13.43
2023-05-05T07:54:10.000Z,13.48
2023-05-05T07:55:10.000Z,13.38
2023-05-05T07:56:09.000Z,13.36
2023-05-05T07:57:10.000Z,13.32
2023-05-05T07:58:10.000Z,13.35
2023-05-05T07:59:10.000Z,13.45
2023-05-05T08:00:10.000Z,13.52
2023-05-05T08:01:11.000Z,13.43
2023-05-05T08:02:12.000Z,13.38
2023-05-05T08:03:09.000Z,13.47
2023-05-05T08:04:09.000Z,13.56
2023-05-05T08:05:10.000Z,13.68
2023-05-05T08:06:09.000Z,13.48
2023-05-05T08:07:09.000Z,13.37
2023-05-05T08:08:10.000Z,13.41
2023-05-05T08:09:10.000Z,13.41
2023-05-05T08:10:10.000Z,13.42
2023-05-05T08:11:09.000Z,13.62
2023-05-05T08:12:11.000Z,13.48
2023-05-05T08:13:09.000Z,13.52
2023-05-05T08:14:09.000Z,13.66
2023-05-05T08:15:10.000Z,13.52
2023-05-05T08:16:11.000Z,13.53
2023-05-05T08:17:10.000Z,13.50
2023-05-05T08:18:09.000Z,13.50
2023-05-05T08:19:09.000Z,13.45
2023-05-05T08:20:10.000Z,13.39
2023-05-05T08:21:10.000Z,13.53
2023-05-05T08:22:09.000Z,13.59
2023-05-05T08:23:09.000Z,13.56
2023-05-05T08:24:10.000Z,13.72
2023-05-05T08:25:10.000Z,13.83
2023-05-05T08:26:09.000Z,13.81
2023-05-05T08:27:10.000Z,13.85
2023-05-05T08:28:09.000Z,13.73
2023-05-05T08:29:10.000Z,13.83
2023-05-05T08:30:10.000Z,13.68
2023-05-05T08:31:10.000Z,13.51
2023-05-05T08:32:10.000Z,13.48
2023-05-05T08:33:10.000Z,13.45
2023-05-05T08:34:09.000Z,13.51
2023-05-05T08:35:10.000Z,13.44
2023-05-05T08:36:10.000Z,13.50
2023-05-05T08:37:10.000Z,13.56
2023-05-05T08:38:10.000Z,13.55
2023-05-05T08:39:12.000Z,13.58
2023-05-05T08:40:11.000Z,13.36
2023-05-05T08:41:11.000Z,13.47
2023-05-05T08:42:10.000Z,13.46
2023-05-05T08:43:10.000Z,13.52
2023-05-05T08:44:10.000Z,13.60
2023-05-05T08:45:09.000Z,13.59
2023-05-05T08:46:10.000Z,13.54
2023-05-05T08:47:13.000Z,13.51
2023-05-05T08:48:11.000Z,13.60
2023-05-05T08:49:13.000Z,13.71
2023-05-05T08:50:10.000Z,13.75
2023-05-05T08:51:16.000Z,13.73
2023-05-05T08:52:14.000Z,13.78
2023-05-05T08:53:16.000Z,13.62
2023-05-05T08:54:16.000Z,13.62
2023-05-05T08:55:20.000Z,13.61
2023-05-05T08:56:11.000Z,13.46
2023-05-05T08:57:14.000Z,13.32
2023-05-05T08:58:10.000Z,13.37
2023-05-05T08:59:11.000Z,13.46
2023-05-05T09:00:11.000Z,13.64
2023-05-05T09:01:12.000Z,13.51
2023-05-05T09:02:10.000Z,13.56
2023-05-05T09:03:10.000Z,13.66
2023-05-05T09:04:09.000Z,13.72
2023-05-05T09:05:09.000Z,13.65
2023-05-05T09:06:09.000Z,13.63
2023-05-05T09:07:10.000Z,13.74
2023-05-05T09:08:09.000Z,13.75
2023-05-05T09:09:10.000Z,13.73
2023-05-05T09:10:10.000Z,13.25
2023-05-05T09:11:09.000Z,13.52
2023-05-05T09:12:09.000Z,13.56
2023-05-05T09:13:09.000Z,13.64
2023-05-05T09:14:09.000Z,13.69
2023-05-05T09:15:12.000Z,13.54
2023-05-05T09:16:09.000Z,13.69
2023-05-05T09:17:19.000Z,13.61
2023-05-05T09:18:10.000Z,13.43
2023-05-05T09:19:09.000Z,13.55
2023-05-05T09:20:11.000Z,13.57
2023-05-05T09:21:18.000Z,13.53
2023-05-05T09:22:09.000Z,13.50
2023-05-05T09:23:14.000Z,13.61
2023-05-05T09:24:11.000Z,13.68
2023-05-05T09:25:12.000Z,13.57
2023-05-05T09:26:09.000Z,13.61
2023-05-05T09:27:20.000Z,13.58
2023-05-05T09:28:14.000Z,13.52
2023-05-05T09:29:17.000Z,13.46
2023-05-05T09:30:14.000Z,13.54
2023-05-05T09:31:11.000Z,13.52
2023-05-05T09:32:09.000Z,13.60
2023-05-05T09:33:10.000Z,13.67
2023-05-05T09:34:14.000Z,13.48
2023-05-05T09:35:09.000Z,13.64
2023-05-05T09:36:10.000Z,13.46
2023-05-05T09:37:09.000Z,13.50
2023-05-05T09:38:09.000Z,13.49
2023-05-05T09:39:09.000Z,13.57
2023-05-05T09:40:12.000Z,13.49
2023-05-05T09:41:09.000Z,13.46
2023-05-05T09:42:17.000Z,13.51
2023-05-05T09:43:09.000Z,13.62
2023-05-05T09:44:10.000Z,13.83
2023-05-05T09:45:32.000Z,13.72
2023-05-05T09:46:09.000Z,13.64
2023-05-05T09:47:09.000Z,13.54
2023-05-05T09:48:19.000Z,13.56
2023-05-05T09:49:14.000Z,13.48
2023-05-05T09:50:10.000Z,13.52
2023-05-05T09:51:12.000Z,13.60
2023-05-05T09:52:11.000Z,13.63
2023-05-05T09:53:10.000Z,13.63
2023-05-05T09:54:19.000Z,13.58
2023-05-05T09:55:15.000Z,13.46
2023-05-05T09:56:10.000Z,13.50
2023-05-05T09:57:19.000Z,13.51
2023-05-05T09:58:17.000Z,13.47
2023-05-05T09:59:10.000Z,13.65
2023-05-05T10:00:10.000Z,13.47
2023-05-05T10:01:20.000Z,13.60
2023-05-05T10:02:11.000Z,13.50
2023-05-05T10:03:09.000Z,13.67
2023-05-05T10:04:19.000Z,13.82
2023-05-05T10:05:15.000Z,13.69
2023-05-05T10:06:09.000Z,13.73
2023-05-05T10:07:21.000Z,13.62
2023-05-05T10:08:11.000Z,13.58
2023-05-05T10:09:09.000Z,13.29
2023-05-05T10:10:14.000Z,13.34
2023-05-05T10:11:09.000Z,13.32
2023-05-05T10:12:09.000Z,13.23
2023-05-05T10:13:10.000Z,13.42
2023-05-05T10:14:11.000Z,13.41
2023-05-05T10:15:09.000Z,13.38
2023-05-05T10:16:10.000Z,13.36
2023-05-05T10:17:10.000Z,13.32
2023-05-05T10:18:17.000Z,13.33
2023-05-05T10:19:10.000Z,13.09
2023-05-05T10:20:11.000Z,13.08
2023-05-05T10:21:11.000Z,13.14
2023-05-05T10:22:09.000Z,13.29
2023-05-05T10:23:13.000Z,13.36
2023-05-05T10:24:15.000Z,13.49
2023-05-05T10:25:11.000Z,13.59
2023-05-05T10:26:12.000Z,13.70
2023-05-05T10:27:17.000Z,13.54
2023-05-05T10:28:14.000Z,13.56
2023-05-05T10:29:18.000Z,13.54
2023-05-05T10:30:20.000Z,13.69
2023-05-05T10:31:20.000Z,13.62
2023-05-05T10:32:20.000Z,13.72
2023-05-05T10:33:15.000Z,13.64
2023-05-05T10:34:20.000Z,13.57
2023-05-05T10:35:15.000Z,13.56
2023-05-05T10:36:11.000Z,13.49
2023-05-05T10:37:10.000Z,13.61
2023-05-05T10:38:11.000Z,13.70
2023-05-05T10:39:10.000Z,13.64
2023-05-05T10:40:12.000Z,13.72
2023-05-05T10:41:12.000Z,13.68
2023-05-05T10:42:13.000Z,13.66
2023-05-05T10:43:12.000Z,13.79
2023-05-05T10:44:10.000Z,13.71
2023-05-05T10:45:10.000Z,13.58
2023-05-05T10:46:10.000Z,13.73
2023-05-05T10:47:11.000Z,13.88
2023-05-05T10:48:19.000Z,13.81
2023-05-05T10:49:19.000Z,13.44
2023-05-05T10:50:19.000Z,13.48
2023-05-05T10:51:30.000Z,13.05
2023-05-05T10:52:20.000Z,13.07
2023-05-05T10:53:22.000Z,13.03
2023-05-05T10:54:23.000Z,13.03
2023-05-05T10:55:15.000Z,13.39
2023-05-05T10:56:20.000Z,13.55
2023-05-05T10:57:10.000Z,13.63
2023-05-05T10:58:30.000Z,13.68
2023-05-05T10:59:33.000Z,13.75
2023-05-05T11:00:29.000Z,13.69
2023-05-05T11:01:09.000Z,13.75
2023-05-05T11:02:19.000Z,13.70
2023-05-05T11:03:18.000Z,13.75
2023-05-05T11:04:18.000Z,13.54
2023-05-05T11:05:15.000Z,13.10
2023-05-05T11:06:11.000Z,13.29
2023-05-05T11:07:24.000Z,13.13
2023-05-05T11:08:19.000Z,13.32
2023-05-05T11:09:30.000Z,13.51
2023-05-05T11:10:11.000Z,13.81
2023-05-05T11:11:11.000Z,13.89
2023-05-05T11:12:12.000Z,13.75
2023-05-05T11:13:17.000Z,13.67
2023-05-05T11:14:18.000Z,13.66
2023-05-05T11:15:20.000Z,13.81
2023-05-05T11:16:19.000Z,13.62
2023-05-05T11:17:19.000Z,13.84
2023-05-05T11:18:19.000Z,14.01
2023-05-05T11:19:30.000Z,14.02
2023-05-05T11:20:10.000Z,14.02
2023-05-05T11:21:15.000Z,14.01
2023-05-05T11:22:10.000Z,14.04
2023-05-05T11:23:25.000Z,14.10
2023-05-05T11:24:25.000Z,13.99
2023-05-05T11:25:19.000Z,13.96
2023-05-05T11:26:11.000Z,13.92
2023-05-05T11:27:10.000Z,13.85
2023-05-05T11:28:12.000Z,13.88
2023-05-05T11:29:09.000Z,13.82
2023-05-05T11:30:11.000Z,13.68
2023-05-05T11:31:15.000Z,13.96
2023-05-05T11:32:13.000Z,13.94
2023-05-05T11:33:19.000Z,14.01
2023-05-05T11:34:19.000Z,13.82
2023-05-05T11:35:10.000Z,13.74
2023-05-05T11:36:15.000Z,13.71
2023-05-05T11:37:09.000Z,13.70
2023-05-05T11:38:12.000Z,13.40
2023-05-05T11:39:19.000Z,13.45
2023-05-05T11:40:18.000Z,13.56
2023-05-05T11:41:19.000Z,13.66
2023-05-05T11:42:20.000Z,13.60
2023-05-05T11:43:09.000Z,13.66
2023-05-05T11:44:17.000Z,13.65
2023-05-05T11:45:18.000Z,13.68
2023-05-05T11:46:12.000Z,13.72
2023-05-05T11:47:25.000Z,13.73
2023-05-05T11:48:19.000Z,13.75
2023-05-05T11:49:09.000Z,13.79
2023-05-05T11:50:15.000Z,13.75
2023-05-05T11:51:10.000Z,13.86
2023-05-05T11:52:12.000Z,13.46
2023-05-05T11:53:12.000Z,13.35
2023-05-05T11:54:10.000Z,13.22
2023-05-05T11:55:10.000Z,13.33
2023-05-05T11:56:11.000Z,13.43
2023-05-05T11:57:09.000Z,13.49
2023-05-05T11:58:18.000Z,13.46
2023-05-05T11:59:09.000Z,13.24
2023-05-05T12:00:10.000Z,13.42
2023-05-05T12:01:10.000Z,13.59
2023-05-05T12:02:09.000Z,13.40
2023-05-05T12:03:09.000Z,13.38
2023-05-05T12:04:10.000Z,13.47
2023-05-05T12:05:09.000Z,13.44
2023-05-05T12:06:09.000Z,13.54
2023-05-05T12:07:17.000Z,13.32
2023-05-05T12:08:09.000Z,13.27
2023-05-05T12:09:17.000Z,13.10
2023-05-05T12:10:09.000Z,12.87
2023-05-05T12:11:09.000Z,12.88
2023-05-05T12:12:09.000Z,13.00
2023-05-05T12:13:17.000Z,12.80
2023-05-05T12:14:09.000Z,12.98
2023-05-05T12:15:09.000Z,13.07
2023-05-05T12:16:10.000Z,13.02
2023-05-05T12:17:09.000Z,12.75
2023-05-05T12:18:17.000Z,12.81
2023-05-05T12:19:12.000Z,12.72
2023-05-05T12:20:10.000Z,12.77
2023-05-05T12:21:15.000Z,12.40
2023-05-05T12:22:20.000Z,12.48
2023-05-05T12:23:10.000Z,12.61
2023-05-05T12:24:12.000Z,12.49
2023-05-05T12:25:09.000Z,12.56
2023-05-05T12:26:19.000Z,12.58
2023-05-05T12:27:09.000Z,12.47
2023-05-05T12:28:09.000Z,12.60
2023-05-05T12:29:09.000Z,12.53
2023-05-05T12:30:14.000Z,12.67
2023-05-05T12:31:09.000Z,12.66
2023-05-05T12:32:18.000Z,12.64
2023-05-05T12:33:09.000Z,12.79
2023-05-05T12:34:10.000Z,12.82
2023-05-05T12:35:11.000Z,12.78
2023-05-05T12:36:11.000Z,12.78
2023-05-05T12:37:10.000Z,12.73
2023-05-05T12:38:10.000Z,12.59
2023-05-05T12:39:10.000Z,12.42
2023-05-05T12:40:20.000Z,12.54
2023-05-05T12:41:15.000Z,12.52
2023-05-05T12:42:09.000Z,12.55
2023-05-05T12:43:19.000Z,12.56
2023-05-05T12:44:09.000Z,12.63
2023-05-05T12:45:15.000Z,12.45
2023-05-05T12:46:11.000Z,12.30
2023-05-05T12:47:10.000Z,12.73
2023-05-05T12:48:20.000Z,12.65
2023-05-05T12:49:10.000Z,12.61
2023-05-05T12:50:09.000Z,12.56
2023-05-05T12:51:17.000Z,12.62
2023-05-05T12:52:09.000Z,12.49
2023-05-05T12:53:19.000Z,12.63
2023-05-05T12:54:10.000Z,12.73
2023-05-05T12:55:10.000Z,12.62
2023-05-05T12:56:19.000Z,12.54
2023-05-05T12:57:10.000Z,12.58
2023-05-05T12:58:09.000Z,12.61
2023-05-05T12:59:28.000Z,12.39
2023-05-05T13:00:14.000Z,12.58
2023-05-05T13:01:09.000Z,12.57